sensor_id;sensor_type;location;lat;lon;timestamp;temperature;humidity
75457;SHT31;64036;48.266;14.192;2024-02-21T00:02:27;6.76;72.50
75457;SHT31;64036;48.266;14.192;2024-02-21T00:04:53;6.76;72.57
75457;SHT31;64036;48.266;14.192;2024-02-21T00:07:19;6.76;72.60
75457;SHT31;64036;48.266;14.192;2024-02-21T00:09:45;6.77;72.60
75457;SHT31;64036;48.266;14.192;2024-02-21T00:12:18;6.77;72.56
75457;SHT31;64036;48.266;14.192;2024-02-21T00:14:44;6.78;72.50
75457;SHT31;64036;48.266;14.192;2024-02-21T00:17:11;6.79;72.49
75457;SHT31;64036;48.266;14.192;2024-02-21T00:19:36;6.79;72.45
75457;SHT31;64036;48.266;14.192;2024-02-21T00:22:03;6.79;72.40
75457;SHT31;64036;48.266;14.192;2024-02-21T00:24:29;6.78;72.40
75457;SHT31;64036;48.266;14.192;2024-02-21T00:26:55;6.79;72.50
75457;SHT31;64036;48.266;14.192;2024-02-21T00:29:20;6.80;72.45
75457;SHT31;64036;48.266;14.192;2024-02-21T00:31:54;6.79;72.46
75457;SHT31;64036;48.266;14.192;2024-02-21T00:34:19;6.79;72.37
75457;SHT31;64036;48.266;14.192;2024-02-21T00:36:45;6.80;72.30
75457;SHT31;64036;48.266;14.192;2024-02-21T00:39:11;6.78;72.29
75457;SHT31;64036;48.266;14.192;2024-02-21T00:41:36;6.78;72.28
75457;SHT31;64036;48.266;14.192;2024-02-21T00:44:02;6.77;72.30
75457;SHT31;64036;48.266;14.192;2024-02-21T00:46:30;6.78;72.31
75457;SHT31;64036;48.266;14.192;2024-02-21T00:48:56;6.79;72.31
75457;SHT31;64036;48.266;14.192;2024-02-21T00:51:22;6.81;72.30
75457;SHT31;64036;48.266;14.192;2024-02-21T00:53:48;6.80;72.30
75457;SHT31;64036;48.266;14.192;2024-02-21T00:56:13;6.79;72.30
75457;SHT31;64036;48.266;14.192;2024-02-21T00:58:39;6.78;72.46
75457;SHT31;64036;48.266;14.192;2024-02-21T01:01:08;6.75;72.71
75457;SHT31;64036;48.266;14.192;2024-02-21T01:03:34;6.74;72.89
75457;SHT31;64036;48.266;14.192;2024-02-21T01:06:00;6.74;72.95
75457;SHT31;64036;48.266;14.192;2024-02-21T01:08:26;6.75;73.01
75457;SHT31;64036;48.266;14.192;2024-02-21T01:10:51;6.77;73.09
75457;SHT31;64036;48.266;14.192;2024-02-21T01:13:17;6.77;73.07
75457;SHT31;64036;48.266;14.192;2024-02-21T01:15:43;6.78;73.01
75457;SHT31;64036;48.266;14.192;2024-02-21T01:18:08;6.80;73.00
75457;SHT31;64036;48.266;14.192;2024-02-21T01:20:34;6.82;72.99
75457;SHT31;64036;48.266;14.192;2024-02-21T01:23:07;6.87;72.93
75457;SHT31;64036;48.266;14.192;2024-02-21T01:25:56;6.88;72.90
75457;SHT31;64036;48.266;14.192;2024-02-21T01:28:29;6.89;72.83
75457;SHT31;64036;48.266;14.192;2024-02-21T01:30:56;6.92;72.87
75457;SHT31;64036;48.266;14.192;2024-02-21T01:33:22;6.94;72.83
75457;SHT31;64036;48.266;14.192;2024-02-21T01:35:51;6.95;72.74
75457;SHT31;64036;48.266;14.192;2024-02-21T01:38:16;6.94;72.78
75457;SHT31;64036;48.266;14.192;2024-02-21T01:40:42;6.91;72.70
75457;SHT31;64036;48.266;14.192;2024-02-21T01:43:17;6.85;72.76
75457;SHT31;64036;48.266;14.192;2024-02-21T01:45:48;6.84;72.79
75457;SHT31;64036;48.266;14.192;2024-02-21T01:48:30;6.83;72.79
75457;SHT31;64036;48.266;14.192;2024-02-21T01:51:02;6.82;72.84
75457;SHT31;64036;48.266;14.192;2024-02-21T01:53:30;6.82;72.83
75457;SHT31;64036;48.266;14.192;2024-02-21T01:56:09;6.81;72.83
75457;SHT31;64036;48.266;14.192;2024-02-21T01:58:38;6.79;72.88
75457;SHT31;64036;48.266;14.192;2024-02-21T02:01:07;6.75;72.94
75457;SHT31;64036;48.266;14.192;2024-02-21T02:03:56;6.73;73.00
75457;SHT31;64036;48.266;14.192;2024-02-21T02:06:21;6.71;72.95
75457;SHT31;64036;48.266;14.192;2024-02-21T02:08:57;6.68;72.90
75457;SHT31;64036;48.266;14.192;2024-02-21T02:11:53;6.64;72.94
75457;SHT31;64036;48.266;14.192;2024-02-21T02:15:00;6.59;72.93
75457;SHT31;64036;48.266;14.192;2024-02-21T02:17:43;6.57;72.96
75457;SHT31;64036;48.266;14.192;2024-02-21T02:20:33;6.50;73.05
75457;SHT31;64036;48.266;14.192;2024-02-21T02:23:40;6.44;73.17
75457;SHT31;64036;48.266;14.192;2024-02-21T02:26:41;6.36;73.35
75457;SHT31;64036;48.266;14.192;2024-02-21T02:29:24;6.37;73.40
75457;SHT31;64036;48.266;14.192;2024-02-21T02:31:50;6.36;73.40
75457;SHT31;64036;48.266;14.192;2024-02-21T02:34:16;6.36;73.40
75457;SHT31;64036;48.266;14.192;2024-02-21T02:36:42;6.35;73.47
75457;SHT31;64036;48.266;14.192;2024-02-21T02:39:11;6.35;73.50
75457;SHT31;64036;48.266;14.192;2024-02-21T02:41:37;6.33;73.50
75457;SHT31;64036;48.266;14.192;2024-02-21T02:44:08;6.34;73.54
75457;SHT31;64036;48.266;14.192;2024-02-21T02:46:42;6.34;73.60
75457;SHT31;64036;48.266;14.192;2024-02-21T02:49:16;6.38;73.62
75457;SHT31;64036;48.266;14.192;2024-02-21T02:51:42;6.40;73.66
75457;SHT31;64036;48.266;14.192;2024-02-21T02:54:12;6.41;73.67
75457;SHT31;64036;48.266;14.192;2024-02-21T02:56:37;6.43;73.70
75457;SHT31;64036;48.266;14.192;2024-02-21T02:59:08;6.43;73.70
75457;SHT31;64036;48.266;14.192;2024-02-21T03:01:34;6.44;73.79
75457;SHT31;64036;48.266;14.192;2024-02-21T03:04:01;6.45;73.79
75457;SHT31;64036;48.266;14.192;2024-02-21T03:06:28;6.46;73.80
75457;SHT31;64036;48.266;14.192;2024-02-21T03:08:53;6.45;73.80
75457;SHT31;64036;48.266;14.192;2024-02-21T03:11:20;6.46;73.88
75457;SHT31;64036;48.266;14.192;2024-02-21T03:13:53;6.48;73.88
75457;SHT31;64036;48.266;14.192;2024-02-21T03:16:18;6.50;73.87
75457;SHT31;64036;48.266;14.192;2024-02-21T03:18:44;6.54;73.86
75457;SHT31;64036;48.266;14.192;2024-02-21T03:21:10;6.56;73.81
75457;SHT31;64036;48.266;14.192;2024-02-21T03:23:36;6.58;73.79
75457;SHT31;64036;48.266;14.192;2024-02-21T03:26:05;6.57;73.76
75457;SHT31;64036;48.266;14.192;2024-02-21T03:28:31;6.53;73.70
75457;SHT31;64036;48.266;14.192;2024-02-21T03:30:56;6.51;73.73
75457;SHT31;64036;48.266;14.192;2024-02-21T03:33:22;6.51;73.71
75457;SHT31;64036;48.266;14.192;2024-02-21T03:35:48;6.51;73.76
75457;SHT31;64036;48.266;14.192;2024-02-21T03:38:14;6.50;73.71
75457;SHT31;64036;48.266;14.192;2024-02-21T03:40:40;6.49;73.70
75457;SHT31;64036;48.266;14.192;2024-02-21T03:43:06;6.49;73.64
75457;SHT31;64036;48.266;14.192;2024-02-21T03:45:31;6.51;73.51
75457;SHT31;64036;48.266;14.192;2024-02-21T03:47:57;6.52;73.50
75457;SHT31;64036;48.266;14.192;2024-02-21T03:50:24;6.54;73.58
75457;SHT31;64036;48.266;14.192;2024-02-21T03:52:55;6.56;73.59
75457;SHT31;64036;48.266;14.192;2024-02-21T03:55:21;6.51;73.71
75457;SHT31;64036;48.266;14.192;2024-02-21T03:57:56;6.50;73.90
75457;SHT31;64036;48.266;14.192;2024-02-21T04:00:24;6.47;73.77
75457;SHT31;64036;48.266;14.192;2024-02-21T04:02:50;6.45;73.78
75457;SHT31;64036;48.266;14.192;2024-02-21T04:05:16;6.43;73.73
75457;SHT31;64036;48.266;14.192;2024-02-21T04:07:42;6.39;73.61
75457;SHT31;64036;48.266;14.192;2024-02-21T04:10:11;6.35;73.59
75457;SHT31;64036;48.266;14.192;2024-02-21T04:12:37;6.34;73.60
75457;SHT31;64036;48.266;14.192;2024-02-21T04:15:03;6.34;73.61
75457;SHT31;64036;48.266;14.192;2024-02-21T04:17:30;6.35;73.56
75457;SHT31;64036;48.266;14.192;2024-02-21T04:20:01;6.37;73.41
75457;SHT31;64036;48.266;14.192;2024-02-21T04:22:31;6.39;73.30
75457;SHT31;64036;48.266;14.192;2024-02-21T04:24:59;6.38;73.12
75457;SHT31;64036;48.266;14.192;2024-02-21T04:27:26;6.33;73.10
75457;SHT31;64036;48.266;14.192;2024-02-21T04:29:52;6.30;73.14
75457;SHT31;64036;48.266;14.192;2024-02-21T04:32:19;6.27;73.20
75457;SHT31;64036;48.266;14.192;2024-02-21T04:34:48;6.30;73.17
75457;SHT31;64036;48.266;14.192;2024-02-21T04:37:14;6.33;73.03
75457;SHT31;64036;48.266;14.192;2024-02-21T04:39:40;6.30;73.00
75457;SHT31;64036;48.266;14.192;2024-02-21T04:42:05;6.27;73.00
75457;SHT31;64036;48.266;14.192;2024-02-21T04:44:37;6.22;73.08
75457;SHT31;64036;48.266;14.192;2024-02-21T04:47:06;6.22;73.10
75457;SHT31;64036;48.266;14.192;2024-02-21T04:49:33;6.19;73.10
75457;SHT31;64036;48.266;14.192;2024-02-21T04:51:59;6.20;73.20
75457;SHT31;64036;48.266;14.192;2024-02-21T04:54:35;6.20;73.14
75457;SHT31;64036;48.266;14.192;2024-02-21T04:57:15;6.21;73.17
75457;SHT31;64036;48.266;14.192;2024-02-21T04:59:44;6.16;73.17
75457;SHT31;64036;48.266;14.192;2024-02-21T05:02:11;6.15;73.32
75457;SHT31;64036;48.266;14.192;2024-02-21T05:04:37;6.15;73.40
75457;SHT31;64036;48.266;14.192;2024-02-21T05:07:03;6.13;73.44
75457;SHT31;64036;48.266;14.192;2024-02-21T05:09:30;6.09;73.56
75457;SHT31;64036;48.266;14.192;2024-02-21T05:11:56;6.06;73.72
75457;SHT31;64036;48.266;14.192;2024-02-21T05:14:24;6.03;73.80
75457;SHT31;64036;48.266;14.192;2024-02-21T05:16:52;5.98;73.89
75457;SHT31;64036;48.266;14.192;2024-02-21T05:19:18;5.96;73.92
75457;SHT31;64036;48.266;14.192;2024-02-21T05:21:44;5.95;73.90
75457;SHT31;64036;48.266;14.192;2024-02-21T05:24:10;5.91;73.86
75457;SHT31;64036;48.266;14.192;2024-02-21T05:26:50;5.80;74.02
75457;SHT31;64036;48.266;14.192;2024-02-21T05:29:28;5.78;74.10
75457;SHT31;64036;48.266;14.192;2024-02-21T05:34:21;5.82;74.07
75457;SHT31;64036;48.266;14.192;2024-02-21T05:36:48;5.84;74.04
75457;SHT31;64036;48.266;14.192;2024-02-21T05:39:17;5.83;74.08
75457;SHT31;64036;48.266;14.192;2024-02-21T05:41:43;5.81;74.09
75457;SHT31;64036;48.266;14.192;2024-02-21T05:44:12;5.80;74.11
75457;SHT31;64036;48.266;14.192;2024-02-21T05:46:52;5.78;74.14
75457;SHT31;64036;48.266;14.192;2024-02-21T05:49:35;5.76;74.10
75457;SHT31;64036;48.266;14.192;2024-02-21T05:52:02;5.72;74.10
75457;SHT31;64036;48.266;14.192;2024-02-21T05:54:27;5.70;74.05
75457;SHT31;64036;48.266;14.192;2024-02-21T05:56:53;5.68;74.06
75457;SHT31;64036;48.266;14.192;2024-02-21T05:59:21;5.68;74.03
75457;SHT31;64036;48.266;14.192;2024-02-21T06:01:58;5.65;74.08
75457;SHT31;64036;48.266;14.192;2024-02-21T06:04:29;5.64;74.00
75457;SHT31;64036;48.266;14.192;2024-02-21T06:06:54;5.62;74.00
75457;SHT31;64036;48.266;14.192;2024-02-21T06:09:26;5.57;74.03
75457;SHT31;64036;48.266;14.192;2024-02-21T06:11:57;5.53;74.16
75457;SHT31;64036;48.266;14.192;2024-02-21T06:14:23;5.47;74.28
75457;SHT31;64036;48.266;14.192;2024-02-21T06:16:52;5.43;74.36
75457;SHT31;64036;48.266;14.192;2024-02-21T06:19:39;5.38;74.43
75457;SHT31;64036;48.266;14.192;2024-02-21T06:22:27;5.38;74.50
75457;SHT31;64036;48.266;14.192;2024-02-21T06:25:13;5.39;74.50
75457;SHT31;64036;48.266;14.192;2024-02-21T06:28:12;5.46;74.58
75457;SHT31;64036;48.266;14.192;2024-02-21T06:30:54;5.53;74.50
75457;SHT31;64036;48.266;14.192;2024-02-21T06:33:50;5.57;74.50
75457;SHT31;64036;48.266;14.192;2024-02-21T06:36:41;5.63;74.41
75457;SHT31;64036;48.266;14.192;2024-02-21T06:45:45;5.79;74.27
75457;SHT31;64036;48.266;14.192;2024-02-21T06:48:20;5.94;74.17
75457;SHT31;64036;48.266;14.192;2024-02-21T06:50:46;6.05;74.04
75457;SHT31;64036;48.266;14.192;2024-02-21T06:53:12;6.17;73.86
75457;SHT31;64036;48.266;14.192;2024-02-21T06:55:38;6.28;73.66
75457;SHT31;64036;48.266;14.192;2024-02-21T06:58:06;6.38;73.42
75457;SHT31;64036;48.266;14.192;2024-02-21T07:00:36;6.47;73.26
75457;SHT31;64036;48.266;14.192;2024-02-21T07:03:06;6.52;73.18
75457;SHT31;64036;48.266;14.192;2024-02-21T07:05:45;6.61;73.02
75457;SHT31;64036;48.266;14.192;2024-02-21T07:08:31;6.68;72.90
75457;SHT31;64036;48.266;14.192;2024-02-21T07:11:10;6.76;72.83
75457;SHT31;64036;48.266;14.192;2024-02-21T07:13:50;6.82;72.63
75457;SHT31;64036;48.266;14.192;2024-02-21T07:16:17;6.86;72.53
75457;SHT31;64036;48.266;14.192;2024-02-21T07:18:43;6.94;72.49
75457;SHT31;64036;48.266;14.192;2024-02-21T07:21:08;7.01;72.31
75457;SHT31;64036;48.266;14.192;2024-02-21T07:23:34;7.12;72.30
75457;SHT31;64036;48.266;14.192;2024-02-21T07:26:00;7.26;72.14
75457;SHT31;64036;48.266;14.192;2024-02-21T07:28:25;7.41;71.88
75457;SHT31;64036;48.266;14.192;2024-02-21T07:30:51;7.56;71.74
75457;SHT31;64036;48.266;14.192;2024-02-21T07:33:17;7.72;71.57
75457;SHT31;64036;48.266;14.192;2024-02-21T07:35:46;7.89;71.26
75457;SHT31;64036;48.266;14.192;2024-02-21T07:38:11;8.04;70.88
75457;SHT31;64036;48.266;14.192;2024-02-21T07:40:37;8.12;70.50
75457;SHT31;64036;48.266;14.192;2024-02-21T07:43:04;8.41;70.35
75457;SHT31;64036;48.266;14.192;2024-02-21T07:45:29;9.18;69.65
75457;SHT31;64036;48.266;14.192;2024-02-21T07:47:55;9.47;68.95
75457;SHT31;64036;48.266;14.192;2024-02-21T07:50:21;9.61;68.58
75457;SHT31;64036;48.266;14.192;2024-02-21T07:52:46;9.73;68.06
75457;SHT31;64036;48.266;14.192;2024-02-21T07:55:12;10.33;67.51
75457;SHT31;64036;48.266;14.192;2024-02-21T07:57:38;12.06;66.11
75457;SHT31;64036;48.266;14.192;2024-02-21T08:00:03;13.86;63.65
75457;SHT31;64036;48.266;14.192;2024-02-21T08:02:30;15.57;60.82
75457;SHT31;64036;48.266;14.192;2024-02-21T08:04:56;17.01;57.85
75457;SHT31;64036;48.266;14.192;2024-02-21T08:07:21;18.22;53.69
75457;SHT31;64036;48.266;14.192;2024-02-21T08:09:47;19.24;52.36
75457;SHT31;64036;48.266;14.192;2024-02-21T08:12:13;19.94;51.02
75457;SHT31;64036;48.266;14.192;2024-02-21T08:14:38;19.82;49.39
75457;SHT31;64036;48.266;14.192;2024-02-21T08:17:04;19.26;48.72
75457;SHT31;64036;48.266;14.192;2024-02-21T08:19:29;18.74;48.40
75457;SHT31;64036;48.266;14.192;2024-02-21T08:21:55;18.16;48.73
75457;SHT31;64036;48.266;14.192;2024-02-21T08:24:21;17.66;48.76
75457;SHT31;64036;48.266;14.192;2024-02-21T08:26:48;17.19;48.77
75457;SHT31;64036;48.266;14.192;2024-02-21T08:29:13;16.57;48.82
75457;SHT31;64036;48.266;14.192;2024-02-21T08:31:39;16.01;49.68
75457;SHT31;64036;48.266;14.192;2024-02-21T08:34:05;15.50;50.46
75457;SHT31;64036;48.266;14.192;2024-02-21T08:36:31;15.04;50.89
75457;SHT31;64036;48.266;14.192;2024-02-21T08:38:57;14.61;51.55
75457;SHT31;64036;48.266;14.192;2024-02-21T08:41:24;14.32;51.97
75457;SHT31;64036;48.266;14.192;2024-02-21T08:43:51;14.13;52.43
75457;SHT31;64036;48.266;14.192;2024-02-21T08:46:19;14.01;52.44
75457;SHT31;64036;48.266;14.192;2024-02-21T08:48:46;13.84;52.20
75457;SHT31;64036;48.266;14.192;2024-02-21T08:51:12;13.74;52.80
75457;SHT31;64036;48.266;14.192;2024-02-21T08:53:38;13.63;52.76
75457;SHT31;64036;48.266;14.192;2024-02-21T08:56:04;13.52;52.90
75457;SHT31;64036;48.266;14.192;2024-02-21T08:58:32;13.52;53.19
75457;SHT31;64036;48.266;14.192;2024-02-21T09:01:00;13.76;53.07
75457;SHT31;64036;48.266;14.192;2024-02-21T09:03:26;14.36;53.06
75457;SHT31;64036;48.266;14.192;2024-02-21T09:05:52;14.88;51.99
75457;SHT31;64036;48.266;14.192;2024-02-21T09:08:18;14.91;51.49
75457;SHT31;64036;48.266;14.192;2024-02-21T09:10:44;14.99;51.49
75457;SHT31;64036;48.266;14.192;2024-02-21T09:13:09;15.45;51.17
75457;SHT31;64036;48.266;14.192;2024-02-21T09:15:35;15.73;50.64
75457;SHT31;64036;48.266;14.192;2024-02-21T09:18:01;15.97;49.64
75457;SHT31;64036;48.266;14.192;2024-02-21T09:20:26;15.94;49.69
75457;SHT31;64036;48.266;14.192;2024-02-21T09:22:52;15.79;49.70
75457;SHT31;64036;48.266;14.192;2024-02-21T09:25:18;15.61;49.48
75457;SHT31;64036;48.266;14.192;2024-02-21T09:27:44;15.40;49.90
75457;SHT31;64036;48.266;14.192;2024-02-21T09:30:11;15.29;50.33
75457;SHT31;64036;48.266;14.192;2024-02-21T09:32:40;15.09;50.17
75457;SHT31;64036;48.266;14.192;2024-02-21T09:35:06;14.86;50.56
75457;SHT31;64036;48.266;14.192;2024-02-21T09:37:32;14.67;51.23
75457;SHT31;64036;48.266;14.192;2024-02-21T09:39:58;14.38;50.86
75457;SHT31;64036;48.266;14.192;2024-02-21T09:42:34;14.01;51.82
75457;SHT31;64036;48.266;14.192;2024-02-21T09:45:27;13.87;52.48
75457;SHT31;64036;48.266;14.192;2024-02-21T09:50:44;13.62;52.71
75457;SHT31;64036;48.266;14.192;2024-02-21T09:53:12;13.56;52.67
75457;SHT31;64036;48.266;14.192;2024-02-21T09:55:39;13.53;52.92
75457;SHT31;64036;48.266;14.192;2024-02-21T09:58:07;13.53;53.26
75457;SHT31;64036;48.266;14.192;2024-02-21T10:00:34;13.44;53.20
75457;SHT31;64036;48.266;14.192;2024-02-21T10:03:01;13.41;53.03
75457;SHT31;64036;48.266;14.192;2024-02-21T10:05:33;13.54;53.46
75457;SHT31;64036;48.266;14.192;2024-02-21T10:07:59;13.73;53.46
75457;SHT31;64036;48.266;14.192;2024-02-21T10:10:24;13.91;53.00
75457;SHT31;64036;48.266;14.192;2024-02-21T10:12:52;13.93;52.38
75457;SHT31;64036;48.266;14.192;2024-02-21T10:15:23;13.99;52.79
75457;SHT31;64036;48.266;14.192;2024-02-21T10:17:50;14.09;52.44
75457;SHT31;64036;48.266;14.192;2024-02-21T10:20:24;14.09;52.08
75457;SHT31;64036;48.266;14.192;2024-02-21T10:22:59;14.06;52.26
75457;SHT31;64036;48.266;14.192;2024-02-21T10:25:33;14.08;52.58
75457;SHT31;64036;48.266;14.192;2024-02-21T10:28:00;14.07;52.36
75457;SHT31;64036;48.266;14.192;2024-02-21T10:30:28;13.97;52.52
75457;SHT31;64036;48.266;14.192;2024-02-21T10:32:54;13.86;52.70
75457;SHT31;64036;48.266;14.192;2024-02-21T10:35:26;13.78;52.62
75457;SHT31;64036;48.266;14.192;2024-02-21T10:37:57;13.69;52.89
75457;SHT31;64036;48.266;14.192;2024-02-21T10:40:25;13.66;53.15
75457;SHT31;64036;48.266;14.192;2024-02-21T10:42:58;13.67;53.56
75457;SHT31;64036;48.266;14.192;2024-02-21T10:45:34;13.73;53.69
75457;SHT31;64036;48.266;14.192;2024-02-21T10:48:06;13.83;53.52
75457;SHT31;64036;48.266;14.192;2024-02-21T10:51:00;13.96;53.43
75457;SHT31;64036;48.266;14.192;2024-02-21T10:56:34;14.06;52.53
75457;SHT31;64036;48.266;14.192;2024-02-21T10:59:05;13.96;52.34
75457;SHT31;64036;48.266;14.192;2024-02-21T11:01:33;13.90;52.45
75457;SHT31;64036;48.266;14.192;2024-02-21T11:04:03;13.85;52.38
75457;SHT31;64036;48.266;14.192;2024-02-21T11:06:31;13.82;52.70
75457;SHT31;64036;48.266;14.192;2024-02-21T11:09:06;13.82;51.90
75457;SHT31;64036;48.266;14.192;2024-02-21T11:11:34;13.83;51.52
75457;SHT31;64036;48.266;14.192;2024-02-21T11:14:06;13.88;52.04
75457;SHT31;64036;48.266;14.192;2024-02-21T11:16:43;13.96;51.56
75457;SHT31;64036;48.266;14.192;2024-02-21T11:19:09;13.89;50.23
75457;SHT31;64036;48.266;14.192;2024-02-21T11:21:46;13.87;50.64
75457;SHT31;64036;48.266;14.192;2024-02-21T11:24:13;13.95;50.95
75457;SHT31;64036;48.266;14.192;2024-02-21T11:26:39;13.98;50.85
75457;SHT31;64036;48.266;14.192;2024-02-21T11:29:08;13.92;50.83
75457;SHT31;64036;48.266;14.192;2024-02-21T11:31:41;13.82;50.49
75457;SHT31;64036;48.266;14.192;2024-02-21T11:34:11;13.71;50.95
75457;SHT31;64036;48.266;14.192;2024-02-21T11:36:58;13.68;51.29
75457;SHT31;64036;48.266;14.192;2024-02-21T11:39:23;13.70;51.13
75457;SHT31;64036;48.266;14.192;2024-02-21T11:42:03;13.73;51.42
75457;SHT31;64036;48.266;14.192;2024-02-21T11:44:32;13.79;51.59
75457;SHT31;64036;48.266;14.192;2024-02-21T11:46:59;13.83;51.19
75457;SHT31;64036;48.266;14.192;2024-02-21T11:49:25;13.82;50.47
75457;SHT31;64036;48.266;14.192;2024-02-21T11:52:03;13.81;50.56
75457;SHT31;64036;48.266;14.192;2024-02-21T11:54:30;13.83;50.83
75457;SHT31;64036;48.266;14.192;2024-02-21T11:56:56;13.90;51.14
75457;SHT31;64036;48.266;14.192;2024-02-21T11:59:22;14.09;51.63
75457;SHT31;64036;48.266;14.192;2024-02-21T12:01:52;14.33;51.12
75457;SHT31;64036;48.266;14.192;2024-02-21T12:04:21;14.54;50.25
75457;SHT31;64036;48.266;14.192;2024-02-21T12:06:50;14.82;50.02
75457;SHT31;64036;48.266;14.192;2024-02-21T12:09:19;15.10;50.09
75457;SHT31;64036;48.266;14.192;2024-02-21T12:11:45;15.28;48.87
75457;SHT31;64036;48.266;14.192;2024-02-21T12:14:15;15.44;47.58
75457;SHT31;64036;48.266;14.192;2024-02-21T12:16:42;15.62;47.28
75457;SHT31;64036;48.266;14.192;2024-02-21T12:19:12;15.83;46.87
75457;SHT31;64036;48.266;14.192;2024-02-21T12:21:38;15.88;46.76
75457;SHT31;64036;48.266;14.192;2024-02-21T12:24:12;15.93;46.44
75457;SHT31;64036;48.266;14.192;2024-02-21T12:26:47;16.04;46.53
75457;SHT31;64036;48.266;14.192;2024-02-21T12:29:13;16.07;46.23
75457;SHT31;64036;48.266;14.192;2024-02-21T12:31:38;15.99;46.76
75457;SHT31;64036;48.266;14.192;2024-02-21T12:34:05;16.04;47.09
75457;SHT31;64036;48.266;14.192;2024-02-21T12:36:31;16.04;46.65
75457;SHT31;64036;48.266;14.192;2024-02-21T12:38:58;16.12;46.15
75457;SHT31;64036;48.266;14.192;2024-02-21T12:41:25;16.19;46.25
75457;SHT31;64036;48.266;14.192;2024-02-21T12:43:52;16.30;46.32
75457;SHT31;64036;48.266;14.192;2024-02-21T12:46:18;16.37;46.08
75457;SHT31;64036;48.266;14.192;2024-02-21T12:48:44;16.42;46.57
75457;SHT31;64036;48.266;14.192;2024-02-21T12:51:10;16.44;45.60
75457;SHT31;64036;48.266;14.192;2024-02-21T12:53:36;16.39;45.29
75457;SHT31;64036;48.266;14.192;2024-02-21T12:56:02;16.40;46.09
75457;SHT31;64036;48.266;14.192;2024-02-21T12:58:30;16.41;46.09
75457;SHT31;64036;48.266;14.192;2024-02-21T13:00:56;16.38;46.02
75457;SHT31;64036;48.266;14.192;2024-02-21T13:03:22;16.38;45.88
75457;SHT31;64036;48.266;14.192;2024-02-21T13:05:48;16.37;45.79
75457;SHT31;64036;48.266;14.192;2024-02-21T13:08:14;16.39;45.73
75457;SHT31;64036;48.266;14.192;2024-02-21T13:10:39;16.40;45.45
75457;SHT31;64036;48.266;14.192;2024-02-21T13:13:05;16.39;45.19
75457;SHT31;64036;48.266;14.192;2024-02-21T13:15:31;16.35;45.89
75457;SHT31;64036;48.266;14.192;2024-02-21T13:17:57;16.54;46.38
75457;SHT31;64036;48.266;14.192;2024-02-21T13:20:25;16.60;45.44
75457;SHT31;64036;48.266;14.192;2024-02-21T13:22:53;16.51;45.80
75457;SHT31;64036;48.266;14.192;2024-02-21T13:25:19;16.55;46.23
75457;SHT31;64036;48.266;14.192;2024-02-21T13:27:46;16.58;46.39
75457;SHT31;64036;48.266;14.192;2024-02-21T13:30:13;16.57;46.22
75457;SHT31;64036;48.266;14.192;2024-02-21T13:32:41;16.60;46.10
75457;SHT31;64036;48.266;14.192;2024-02-21T13:35:08;16.53;46.22
75457;SHT31;64036;48.266;14.192;2024-02-21T13:37:37;16.39;46.21
75457;SHT31;64036;48.266;14.192;2024-02-21T13:40:06;16.39;46.38
75457;SHT31;64036;48.266;14.192;2024-02-21T13:42:34;16.31;46.24
75457;SHT31;64036;48.266;14.192;2024-02-21T13:45:01;16.26;46.24
75457;SHT31;64036;48.266;14.192;2024-02-21T13:47:27;16.17;46.03
75457;SHT31;64036;48.266;14.192;2024-02-21T13:49:53;16.07;46.19
75457;SHT31;64036;48.266;14.192;2024-02-21T13:52:18;15.99;46.38
75457;SHT31;64036;48.266;14.192;2024-02-21T13:54:47;16.03;46.77
75457;SHT31;64036;48.266;14.192;2024-02-21T13:57:13;16.10;47.16
75457;SHT31;64036;48.266;14.192;2024-02-21T13:59:39;16.13;46.93
75457;SHT31;64036;48.266;14.192;2024-02-21T14:02:05;16.05;46.46
75457;SHT31;64036;48.266;14.192;2024-02-21T14:04:34;15.99;46.28
75457;SHT31;64036;48.266;14.192;2024-02-21T14:07:00;15.93;46.77
75457;SHT31;64036;48.266;14.192;2024-02-21T14:09:27;15.87;47.09
75457;SHT31;64036;48.266;14.192;2024-02-21T14:11:55;15.75;47.17
75457;SHT31;64036;48.266;14.192;2024-02-21T14:14:21;15.69;48.17
75457;SHT31;64036;48.266;14.192;2024-02-21T14:16:47;15.71;47.79
75457;SHT31;64036;48.266;14.192;2024-02-21T14:19:13;15.74;47.40
75457;SHT31;64036;48.266;14.192;2024-02-21T14:21:40;15.69;46.86
75457;SHT31;64036;48.266;14.192;2024-02-21T14:24:06;15.55;47.55
75457;SHT31;64036;48.266;14.192;2024-02-21T14:26:33;15.52;47.57
75457;SHT31;64036;48.266;14.192;2024-02-21T14:28:59;15.54;47.79
75457;SHT31;64036;48.266;14.192;2024-02-21T14:31:25;15.57;47.61
75457;SHT31;64036;48.266;14.192;2024-02-21T14:33:51;15.55;47.58
75457;SHT31;64036;48.266;14.192;2024-02-21T14:36:17;15.45;47.70
75457;SHT31;64036;48.266;14.192;2024-02-21T14:38:43;15.38;47.24
75457;SHT31;64036;48.266;14.192;2024-02-21T14:41:12;15.32;47.55
75457;SHT31;64036;48.266;14.192;2024-02-21T14:43:38;15.28;47.68
75457;SHT31;64036;48.266;14.192;2024-02-21T14:46:04;15.19;47.72
75457;SHT31;64036;48.266;14.192;2024-02-21T14:48:34;15.01;47.94
75457;SHT31;64036;48.266;14.192;2024-02-21T14:51:01;14.80;48.38
75457;SHT31;64036;48.266;14.192;2024-02-21T14:53:27;14.69;48.90
75457;SHT31;64036;48.266;14.192;2024-02-21T14:55:54;14.57;49.62
75457;SHT31;64036;48.266;14.192;2024-02-21T14:58:20;14.55;48.78
75457;SHT31;64036;48.266;14.192;2024-02-21T15:00:46;14.57;48.70
75457;SHT31;64036;48.266;14.192;2024-02-21T15:03:15;14.62;48.89
75457;SHT31;64036;48.266;14.192;2024-02-21T15:05:44;14.59;49.17
75457;SHT31;64036;48.266;14.192;2024-02-21T15:08:11;14.52;49.25
75457;SHT31;64036;48.266;14.192;2024-02-21T15:10:37;14.46;49.29
75457;SHT31;64036;48.266;14.192;2024-02-21T15:13:03;14.32;49.84
75457;SHT31;64036;48.266;14.192;2024-02-21T15:15:29;14.28;49.90
75457;SHT31;64036;48.266;14.192;2024-02-21T15:17:55;14.22;49.91
75457;SHT31;64036;48.266;14.192;2024-02-21T15:20:21;14.13;49.00
75457;SHT31;64036;48.266;14.192;2024-02-21T15:22:47;14.04;49.08
75457;SHT31;64036;48.266;14.192;2024-02-21T15:25:14;13.81;49.41
75457;SHT31;64036;48.266;14.192;2024-02-21T15:27:41;13.56;50.39
75457;SHT31;64036;48.266;14.192;2024-02-21T15:30:08;13.41;51.02
75457;SHT31;64036;48.266;14.192;2024-02-21T15:32:36;13.32;50.01
75457;SHT31;64036;48.266;14.192;2024-02-21T15:35:07;13.25;50.68
75457;SHT31;64036;48.266;14.192;2024-02-21T15:37:33;13.18;51.02
75457;SHT31;64036;48.266;14.192;2024-02-21T15:40:01;13.11;51.20
75457;SHT31;64036;48.266;14.192;2024-02-21T15:42:34;13.03;51.66
75457;SHT31;64036;48.266;14.192;2024-02-21T15:44:59;12.93;51.88
75457;SHT31;64036;48.266;14.192;2024-02-21T15:47:29;12.85;51.78
75457;SHT31;64036;48.266;14.192;2024-02-21T15:49:54;12.78;51.66